Time;durP1;ratioP1;P1;durP2;ratioP2;P2;SDS_P1;SDS_P2;PMS_P1;PMS_P2;Temp;Humidity;BMP_temperature;BMP_pressure;BME280_temperature;BME280_humidity;BME280_pressure;Samples;Min_cycle;Max_cycle;Signal;HPM_P1;HPM_P2
2022/03/08 00:00:00;;;;;;;102.20;46.60;;;-2.60;99.90;;;;;;5095187;28;20044;-85
2022/03/08 00:02:26;;;;;;;69.82;34.05;;;-2.60;99.90;;;;;;5096577;28;20056;-92
2022/03/08 00:04:52;;;;;;;55.22;25.95;;;-2.60;99.90;;;;;;5095852;28;20102;-84
2022/03/08 00:07:18;;;;;;;51.13;23.45;;;-2.50;99.90;;;;;;5096031;28;20031;-92
2022/03/08 00:09:44;;;;;;;49.05;20.02;;;-2.40;99.90;;;;;;5094668;28;20405;-87
2022/03/08 00:12:10;;;;;;;32.58;15.88;;;-2.30;99.90;;;;;;5094611;28;20020;-90
2022/03/08 00:14:35;;;;;;;35.20;17.35;;;-2.20;99.90;;;;;;5095019;28;20032;-92
2022/03/08 00:17:02;;;;;;;33.20;16.27;;;-2.10;99.90;;;;;;5094838;28;20054;-92
2022/03/08 00:19:28;;;;;;;44.25;17.38;;;-2.00;99.90;;;;;;5094740;28;20169;-85
2022/03/08 00:21:53;;;;;;;34.30;16.13;;;-2.00;99.90;;;;;;5095439;28;20059;-84
2022/03/08 00:24:19;;;;;;;30.55;14.38;;;-1.80;99.90;;;;;;5095434;28;20020;-86
2022/03/08 00:26:45;;;;;;;33.10;16.13;;;-1.80;99.90;;;;;;5094201;28;20118;-85
2022/03/08 00:29:11;;;;;;;36.08;17.05;;;-1.80;99.90;;;;;;5094639;28;20027;-91
2022/03/08 00:31:37;;;;;;;27.98;12.82;;;-1.70;99.90;;;;;;5094289;28;20126;-86
2022/03/08 00:34:04;;;;;;;31.38;14.73;;;-1.70;99.90;;;;;;5093139;28;20032;-85
2022/03/08 00:36:30;;;;;;;31.15;14.88;;;-1.70;99.90;;;;;;5095860;28;20020;-85
2022/03/08 00:38:56;;;;;;;34.15;14.73;;;-1.70;99.90;;;;;;5094035;28;20382;-93
2022/03/08 00:41:23;;;;;;;35.63;17.23;;;-1.70;99.90;;;;;;5093901;28;20427;-91
2022/03/08 00:43:49;;;;;;;34.40;16.65;;;-1.70;99.90;;;;;;5094317;28;20024;-85
2022/03/08 00:46:15;;;;;;;32.17;14.25;;;-1.70;99.90;;;;;;5094062;28;20027;-85
2022/03/08 00:48:41;;;;;;;32.88;16.77;;;-1.70;99.90;;;;;;5093752;28;20031;-92
2022/03/08 00:51:08;;;;;;;27.15;14.02;;;-1.80;99.90;;;;;;5094094;28;20024;-85
2022/03/08 00:53:34;;;;;;;21.58;11.35;;;-1.70;99.90;;;;;;5094257;28;20175;-93
2022/03/08 00:55:59;;;;;;;20.10;11.38;;;-1.70;99.90;;;;;;5095047;28;20048;-93
2022/03/08 00:58:25;;;;;;;27.08;12.73;;;-1.80;99.90;;;;;;5093536;28;20084;-85
2022/03/08 01:00:51;;;;;;;22.92;12.95;;;-1.80;99.90;;;;;;5093555;28;20029;-85
2022/03/08 01:03:17;;;;;;;24.83;13.90;;;-1.80;99.90;;;;;;5095115;28;20073;-93
2022/03/08 01:05:42;;;;;;;23.65;12.55;;;-1.80;99.90;;;;;;5094464;28;20035;-89
2022/03/08 01:08:09;;;;;;;22.67;12.70;;;-1.80;99.90;;;;;;5093853;28;20031;-92
2022/03/08 01:10:35;;;;;;;22.55;13.65;;;-1.80;99.90;;;;;;5094156;28;20020;-92
2022/03/08 01:13:01;;;;;;;27.92;11.80;;;-1.80;99.90;;;;;;5093504;28;20388;-85
2022/03/08 01:15:27;;;;;;;28.05;13.70;;;-1.90;99.90;;;;;;5093500;28;20044;-85
2022/03/08 01:17:54;;;;;;;30.15;13.10;;;-1.90;99.90;;;;;;5094557;28;20032;-85
2022/03/08 01:20:21;;;;;;;32.35;15.02;;;-1.90;99.90;;;;;;5092904;28;20371;-85
2022/03/08 01:22:47;;;;;;;31.35;14.38;;;-1.90;99.90;;;;;;5092842;28;20119;-84
2022/03/08 01:25:15;;;;;;;29.10;14.68;;;-1.90;99.90;;;;;;5094319;28;20028;-87
2022/03/08 01:27:41;;;;;;;28.05;13.25;;;-2.00;99.90;;;;;;5094062;28;20020;-92
2022/03/08 01:30:10;;;;;;;27.15;13.52;;;-2.00;99.90;;;;;;5094406;28;20046;-90
2022/03/08 01:32:36;;;;;;;27.77;14.07;;;-1.90;99.90;;;;;;5094104;28;20095;-85
2022/03/08 01:35:02;;;;;;;28.85;13.80;;;-1.90;99.90;;;;;;5092912;28;20055;-87
2022/03/08 01:37:28;;;;;;;29.85;15.38;;;-2.00;99.90;;;;;;5093244;28;20035;-85
2022/03/08 01:39:54;;;;;;;28.02;14.07;;;-2.00;99.90;;;;;;5094227;28;20024;-85
2022/03/08 01:42:22;;;;;;;25.85;13.70;;;-2.00;99.90;;;;;;5094405;28;20027;-92
2022/03/08 01:44:47;;;;;;;24.58;13.40;;;-2.00;99.90;;;;;;5092308;28;20451;-91
2022/03/08 01:47:15;;;;;;;20.13;11.60;;;-2.00;99.90;;;;;;5093909;28;20024;-85
2022/03/08 01:49:41;;;;;;;25.38;13.90;;;-2.00;99.90;;;;;;5092584;28;20024;-84
2022/03/08 01:52:07;;;;;;;27.80;13.60;;;-2.10;99.90;;;;;;5094799;28;20405;-93
2022/03/08 01:54:33;;;;;;;27.25;14.13;;;-2.10;99.90;;;;;;5093621;28;20024;-91
2022/03/08 01:56:59;;;;;;;25.63;15.05;;;-2.10;99.90;;;;;;5093150;28;20235;-85
2022/03/08 01:59:25;;;;;;;24.48;13.52;;;-2.10;99.90;;;;;;5092265;28;20063;-91
2022/03/08 02:01:51;;;;;;;27.00;13.77;;;-2.20;99.90;;;;;;5093197;28;20091;-85
2022/03/08 02:04:17;;;;;;;26.88;14.43;;;-2.20;99.90;;;;;;5092388;28;20119;-92
2022/03/08 02:06:46;;;;;;;23.88;14.05;;;-2.30;99.90;;;;;;5092674;28;20074;-89
2022/03/08 02:09:13;;;;;;;25.33;13.23;;;-2.40;99.90;;;;;;5093358;28;20046;-85
2022/03/08 02:11:39;;;;;;;26.77;13.10;;;-2.40;99.90;;;;;;5093567;28;20031;-92
2022/03/08 02:14:07;;;;;;;35.75;16.33;;;-2.50;99.90;;;;;;5092746;28;20028;-92
2022/03/08 02:16:33;;;;;;;32.45;16.67;;;-2.60;99.90;;;;;;5094219;28;20020;-85
2022/03/08 02:18:59;;;;;;;30.50;15.43;;;-2.60;99.90;;;;;;5092318;28;20028;-86
2022/03/08 02:21:25;;;;;;;26.50;15.65;;;-2.70;99.90;;;;;;5093347;28;20039;-85
2022/03/08 02:23:51;;;;;;;33.30;16.05;;;-2.70;99.90;;;;;;5092073;28;20384;-84
2022/03/08 02:26:19;;;;;;;31.00;16.27;;;-2.80;99.90;;;;;;5092298;28;20032;-90
2022/03/08 02:28:46;;;;;;;27.25;13.82;;;-2.80;99.90;;;;;;5093722;28;20020;-91
2022/03/08 02:31:17;;;;;;;27.75;15.05;;;-2.80;99.90;;;;;;5092212;28;20069;-85
2022/03/08 02:33:43;;;;;;;36.70;15.43;;;-2.80;99.90;;;;;;5093550;28;20020;-91
2022/03/08 02:36:09;;;;;;;28.17;14.63;;;-2.90;99.90;;;;;;5092620;28;20022;-90
2022/03/08 02:38:35;;;;;;;31.95;16.67;;;-2.80;99.90;;;;;;5092513;28;20050;-84
2022/03/08 02:41:00;;;;;;;24.98;14.00;;;-2.90;99.90;;;;;;5092952;28;20031;-86
2022/03/08 02:43:26;;;;;;;31.70;14.02;;;-2.90;99.90;;;;;;5075554;28;20032;-92
2022/03/08 02:45:52;;;;;;;32.28;14.65;;;-2.90;99.90;;;;;;5093342;28;20489;-87
2022/03/08 02:48:17;;;;;;;35.25;16.02;;;-2.90;99.90;;;;;;5091721;28;20032;-84
2022/03/08 02:50:43;;;;;;;32.65;17.15;;;-2.90;99.90;;;;;;5073871;28;20013;-84
2022/03/08 02:53:09;;;;;;;35.22;16.98;;;-3.00;99.90;;;;;;5071716;28;20021;-84
2022/03/08 02:55:36;;;;;;;33.83;17.17;;;-3.00;99.90;;;;;;5073057;28;20028;-86
2022/03/08 02:58:04;;;;;;;33.15;16.33;;;-3.10;99.90;;;;;;5075775;28;20033;-91
2022/03/08 03:00:31;;;;;;;31.38;17.23;;;-3.10;99.90;;;;;;5087076;28;20043;-92
2022/03/08 03:02:57;;;;;;;29.75;15.18;;;-3.10;99.90;;;;;;5095838;28;20024;-83
2022/03/08 03:05:23;;;;;;;27.73;13.65;;;-3.20;99.90;;;;;;5096000;28;20410;-84
2022/03/08 03:07:52;;;;;;;32.45;17.00;;;-3.20;99.90;;;;;;5084536;28;20076;-90
2022/03/08 03:10:19;;;;;;;44.92;21.80;;;-3.30;99.90;;;;;;5075865;28;20101;-84
2022/03/08 03:12:45;;;;;;;49.42;22.98;;;-3.30;99.90;;;;;;5076731;28;20050;-91
2022/03/08 03:15:13;;;;;;;51.15;23.25;;;-3.30;99.90;;;;;;5076805;28;20100;-85
2022/03/08 03:17:39;;;;;;;49.53;24.00;;;-3.30;99.90;;;;;;5075438;28;20016;-84
2022/03/08 03:20:08;;;;;;;37.78;19.02;;;-3.30;99.90;;;;;;5076381;28;20059;-85
2022/03/08 03:22:34;;;;;;;33.90;20.52;;;-3.40;99.90;;;;;;5075142;28;20017;-85
2022/03/08 03:25:00;;;;;;;63.08;28.63;;;-3.40;99.90;;;;;;5074254;28;20523;-84
2022/03/08 03:27:25;;;;;;;110.53;46.25;;;-3.40;99.90;;;;;;5074998;28;20032;-84
2022/03/08 03:29:51;;;;;;;86.22;38.70;;;-3.40;99.90;;;;;;5073978;28;20013;-84
2022/03/08 03:32:19;;;;;;;94.40;39.47;;;-3.50;99.90;;;;;;5075666;28;20036;-90
2022/03/08 03:34:45;;;;;;;75.35;33.75;;;-3.40;99.90;;;;;;5075453;28;20461;-90
2022/03/08 03:37:11;;;;;;;54.38;26.05;;;-3.50;99.90;;;;;;5074236;28;20020;-84
2022/03/08 03:39:36;;;;;;;33.97;17.58;;;-3.50;99.90;;;;;;5076018;28;20043;-84
2022/03/08 03:42:03;;;;;;;42.13;21.13;;;-3.50;99.90;;;;;;5075103;28;20174;-91
2022/03/08 03:44:28;;;;;;;37.15;17.27;;;-3.50;99.90;;;;;;5074915;28;20032;-85
2022/03/08 03:46:54;;;;;;;32.35;17.95;;;-3.50;99.90;;;;;;5076068;28;20024;-84
2022/03/08 03:49:20;;;;;;;34.53;16.52;;;-3.50;99.90;;;;;;5076213;28;20366;-84
2022/03/08 03:51:47;;;;;;;38.85;19.42;;;-3.50;99.90;;;;;;5075027;28;20111;-90
2022/03/08 03:54:12;;;;;;;35.67;17.92;;;-3.50;99.90;;;;;;5076447;28;20017;-82
2022/03/08 03:56:38;;;;;;;39.20;18.98;;;-3.40;99.90;;;;;;5075968;28;20669;-92
2022/03/08 03:59:04;;;;;;;41.35;17.40;;;-3.30;99.90;;;;;;5075864;28;20135;-91
2022/03/08 04:01:29;;;;;;;31.63;15.93;;;-3.30;99.90;;;;;;5074789;28;20021;-85
2022/03/08 04:03:56;;;;;;;38.35;17.92;;;-3.30;99.90;;;;;;5074476;28;20473;-84
2022/03/08 04:06:22;;;;;;;39.58;17.90;;;-3.30;99.90;;;;;;5076024;28;20032;-84
2022/03/08 04:08:48;;;;;;;44.80;18.80;;;-3.30;99.90;;;;;;5074908;28;20082;-85
2022/03/08 04:11:13;;;;;;;36.80;20.45;;;-3.30;99.90;;;;;;5074782;28;20048;-87
2022/03/08 04:13:39;;;;;;;39.05;19.88;;;-3.20;99.90;;;;;;5074835;28;20420;-92
2022/03/08 04:16:05;;;;;;;36.58;17.40;;;-3.20;99.90;;;;;;5075949;28;20466;-89
2022/03/08 04:18:31;;;;;;;43.03;21.42;;;-3.20;99.90;;;;;;5074124;28;20412;-84
2022/03/08 04:20:57;;;;;;;44.63;22.67;;;-3.20;99.90;;;;;;5074227;28;20017;-85
2022/03/08 04:23:22;;;;;;;48.00;20.45;;;-3.10;99.90;;;;;;5074193;28;20484;-90
2022/03/08 04:25:48;;;;;;;45.22;20.40;;;-3.10;99.90;;;;;;5074761;28;20465;-89
2022/03/08 04:28:14;;;;;;;52.03;20.90;;;-3.10;99.90;;;;;;5075500;28;20028;-91
2022/03/08 04:30:39;;;;;;;44.25;22.05;;;-3.00;99.90;;;;;;5074046;28;20025;-89
2022/03/08 04:33:05;;;;;;;45.88;20.60;;;-3.00;99.90;;;;;;5074189;28;20043;-84
2022/03/08 04:35:31;;;;;;;44.88;21.70;;;-3.00;99.90;;;;;;5073976;28;20457;-86
2022/03/08 04:37:56;;;;;;;41.47;20.77;;;-3.00;99.90;;;;;;5075237;28;20043;-91
2022/03/08 04:40:23;;;;;;;50.60;20.83;;;-3.00;99.90;;;;;;5074138;28;20020;-91
2022/03/08 04:42:49;;;;;;;41.13;17.27;;;-3.00;99.90;;;;;;5073890;28;20115;-84
2022/03/08 04:45:15;;;;;;;45.05;22.55;;;-2.90;99.90;;;;;;5074959;28;20067;-90
2022/03/08 04:47:41;;;;;;;47.17;22.05;;;-2.90;99.90;;;;;;5073848;28;20385;-91
2022/03/08 04:50:09;;;;;;;48.92;22.38;;;-2.90;99.90;;;;;;5074254;28;20025;-85
2022/03/08 04:52:35;;;;;;;54.72;23.58;;;-2.90;99.90;;;;;;5073956;28;20482;-91
2022/03/08 04:55:01;;;;;;;53.75;24.35;;;-2.90;99.90;;;;;;5073745;28;20040;-85
2022/03/08 04:57:26;;;;;;;52.72;24.77;;;-2.80;99.90;;;;;;5073795;28;20028;-91
2022/03/08 04:59:52;;;;;;;61.63;26.17;;;-2.80;99.90;;;;;;5073519;28;20131;-91
2022/03/08 05:02:18;;;;;;;54.10;25.77;;;-2.80;99.90;;;;;;5074980;28;20114;-92
2022/03/08 05:04:44;;;;;;;60.67;27.60;;;-2.70;99.90;;;;;;5073541;28;20480;-85
2022/03/08 05:07:09;;;;;;;61.50;27.58;;;-2.70;99.90;;;;;;5074584;28;20021;-84
2022/03/08 05:09:35;;;;;;;61.65;27.67;;;-2.70;99.90;;;;;;5074350;28;20519;-89
2022/03/08 05:12:01;;;;;;;59.15;30.10;;;-2.70;99.90;;;;;;5073323;28;20020;-84
2022/03/08 05:14:27;;;;;;;57.70;26.10;;;-2.60;99.90;;;;;;5074425;28;20021;-92
2022/03/08 05:16:53;;;;;;;57.45;27.70;;;-2.60;99.90;;;;;;5073322;28;20055;-84
2022/03/08 05:19:18;;;;;;;51.20;23.92;;;-2.60;99.90;;;;;;5073921;28;20038;-85
2022/03/08 05:21:44;;;;;;;57.33;26.55;;;-2.60;99.90;;;;;;5073429;28;20029;-87
2022/03/08 05:24:10;;;;;;;59.03;27.63;;;-2.50;99.90;;;;;;5074102;28;20394;-89
2022/03/08 05:26:37;;;;;;;49.80;24.67;;;-2.50;99.90;;;;;;5073377;28;20082;-91
2022/03/08 05:29:06;;;;;;;53.17;25.60;;;-2.50;99.90;;;;;;5074600;28;20028;-92
2022/03/08 05:31:32;;;;;;;57.30;25.38;;;-2.40;99.90;;;;;;5073451;28;20097;-85
2022/03/08 05:33:58;;;;;;;64.05;27.73;;;-2.40;99.90;;;;;;5072936;28;20067;-91
2022/03/08 05:36:24;;;;;;;68.55;29.17;;;-2.40;99.90;;;;;;5073293;28;20475;-84
2022/03/08 05:38:50;;;;;;;65.70;31.10;;;-2.30;99.90;;;;;;5073842;28;20117;-85
2022/03/08 05:41:15;;;;;;;59.65;28.23;;;-2.30;99.90;;;;;;5074226;28;20469;-88
2022/03/08 05:43:41;;;;;;;58.53;27.63;;;-2.30;99.90;;;;;;5073028;28;20182;-84
2022/03/08 05:46:07;;;;;;;52.35;25.33;;;-2.20;99.90;;;;;;5072613;28;20028;-85
2022/03/08 05:48:33;;;;;;;56.97;26.73;;;-2.30;99.90;;;;;;5072478;28;20024;-84
2022/03/08 05:50:59;;;;;;;49.90;26.75;;;-2.20;99.90;;;;;;5072233;28;20028;-86
2022/03/08 05:53:25;;;;;;;61.63;26.35;;;-2.20;99.90;;;;;;5073953;28;20028;-90
2022/03/08 05:55:51;;;;;;;75.07;23.55;;;-2.10;99.90;;;;;;5072362;28;20013;-91
2022/03/08 05:58:17;;;;;;;51.40;25.13;;;-2.10;99.90;;;;;;5072011;28;20036;-92
2022/03/08 06:00:43;;;;;;;52.33;25.17;;;-2.10;99.90;;;;;;5073787;28;20066;-84
2022/03/08 06:03:08;;;;;;;47.42;22.50;;;-2.10;99.90;;;;;;5072411;28;20025;-90
2022/03/08 06:05:35;;;;;;;45.05;22.58;;;-2.00;99.90;;;;;;5073619;28;20078;-85
2022/03/08 06:08:02;;;;;;;55.78;24.95;;;-2.00;99.90;;;;;;5067823;28;20028;-91
2022/03/08 06:10:28;;;;;;;33.97;18.55;;;-2.10;99.90;;;;;;5070921;28;20474;-84
2022/03/08 06:12:54;;;;;;;47.60;22.85;;;-2.10;99.90;;;;;;5069536;28;20036;-83
2022/03/08 06:15:19;;;;;;;47.45;23.55;;;-2.10;99.90;;;;;;5072950;28;20017;-84
2022/03/08 06:17:46;;;;;;;52.95;23.15;;;-2.00;99.90;;;;;;5068229;28;20032;-91
2022/03/08 06:20:11;;;;;;;51.95;23.17;;;-2.00;99.90;;;;;;5052494;28;20029;-84
2022/03/08 06:22:38;;;;;;;49.88;22.08;;;-2.00;99.90;;;;;;5051101;28;20044;-83
2022/03/08 06:25:05;;;;;;;49.40;21.48;;;-2.00;99.90;;;;;;5050460;28;20039;-84
2022/03/08 06:27:31;;;;;;;50.22;25.10;;;-2.00;99.90;;;;;;5050206;28;20025;-85
2022/03/08 06:29:57;;;;;;;48.42;23.75;;;-1.90;99.90;;;;;;5051817;28;20740;-90
2022/03/08 06:32:23;;;;;;;54.50;26.13;;;-1.80;99.90;;;;;;5050354;28;20036;-91
2022/03/08 06:34:52;;;;;;;49.05;24.45;;;-1.80;99.90;;;;;;5052082;28;20021;-91
2022/03/08 06:37:19;;;;;;;62.25;26.15;;;-1.70;99.90;;;;;;5050822;28;20025;-84
2022/03/08 06:39:48;;;;;;;79.65;37.25;;;-1.70;99.90;;;;;;5071571;28;20028;-90
2022/03/08 06:42:14;;;;;;;65.10;35.63;;;-1.60;99.90;;;;;;5073325;28;20103;-85
2022/03/08 06:44:40;;;;;;;49.05;25.55;;;-1.50;99.90;;;;;;5072252;28;20028;-85
2022/03/08 06:47:07;;;;;;;42.30;24.98;;;-1.50;99.90;;;;;;5073485;28;20077;-90
2022/03/08 06:49:34;;;;;;;37.47;19.42;;;-1.50;99.90;;;;;;5072946;28;20482;-85
2022/03/08 06:52:00;;;;;;;44.90;20.95;;;-1.50;99.90;;;;;;5073137;28;20099;-91
2022/03/08 06:54:26;;;;;;;35.03;17.92;;;-1.40;99.90;;;;;;5084322;28;20028;-86
2022/03/08 06:56:51;;;;;;;33.22;16.83;;;-1.40;99.90;;;;;;5092181;28;20047;-91
2022/03/08 06:59:17;;;;;;;44.53;22.50;;;-1.40;99.90;;;;;;5092543;28;20062;-85
2022/03/08 07:01:43;;;;;;;30.00;17.10;;;-1.40;99.90;;;;;;5080314;28;20020;-92
2022/03/08 07:04:09;;;;;;;41.10;19.15;;;-1.30;99.90;;;;;;5090080;28;20020;-89
2022/03/08 07:06:36;;;;;;;29.48;15.15;;;-1.30;99.90;;;;;;5071741;28;20102;-86
2022/03/08 07:09:02;;;;;;;38.83;18.48;;;-1.20;99.90;;;;;;5072795;28;20024;-86
2022/03/08 07:11:28;;;;;;;34.95;16.42;;;-1.10;99.90;;;;;;5073235;28;20037;-86
2022/03/08 07:13:54;;;;;;;43.63;18.15;;;-1.20;99.90;;;;;;5071765;28;20028;-91
2022/03/08 07:16:21;;;;;;;31.15;16.33;;;-1.10;99.90;;;;;;5072342;28;20024;-87
2022/03/08 07:18:46;;;;;;;32.53;16.02;;;-1.00;99.90;;;;;;5072182;28;20075;-92
2022/03/08 07:21:12;;;;;;;34.53;17.98;;;-1.00;99.90;;;;;;5072253;28;20020;-88
2022/03/08 07:23:39;;;;;;;34.92;17.75;;;-1.00;99.90;;;;;;5072288;28;20028;-85
2022/03/08 07:26:04;;;;;;;29.42;15.65;;;-1.00;99.90;;;;;;5072663;28;20112;-91
2022/03/08 07:28:31;;;;;;;26.40;15.90;;;-0.90;99.90;;;;;;5072292;28;20056;-92
2022/03/08 07:30:56;;;;;;;27.52;15.32;;;-0.90;99.90;;;;;;5080105;28;20455;-86
2022/03/08 07:33:23;;;;;;;30.33;15.52;;;-0.80;99.90;;;;;;5093584;28;20111;-91
2022/03/08 07:35:49;;;;;;;29.45;16.02;;;-0.70;99.90;;;;;;5093350;28;20427;-91
2022/03/08 07:38:15;;;;;;;34.30;17.13;;;-0.60;99.90;;;;;;5091880;28;20032;-85
2022/03/08 07:40:42;;;;;;;24.95;14.32;;;-0.50;99.90;;;;;;5091741;28;20020;-90
2022/03/08 07:43:08;;;;;;;23.60;13.40;;;-0.60;99.90;;;;;;5091742;28;20051;-89
2022/03/08 07:45:35;;;;;;;26.02;14.70;;;-0.60;99.90;;;;;;5095041;28;20022;-89
2022/03/08 07:48:01;;;;;;;24.50;14.13;;;-0.60;99.90;;;;;;5096447;28;20490;-85
2022/03/08 07:50:27;;;;;;;28.73;15.55;;;-0.60;99.90;;;;;;5094950;28;20101;-85
2022/03/08 07:52:53;;;;;;;28.50;15.13;;;-0.60;99.90;;;;;;5095067;28;20020;-84
2022/03/08 07:55:19;;;;;;;25.75;15.27;;;-0.60;99.90;;;;;;5094863;28;20028;-84
2022/03/08 07:57:44;;;;;;;27.50;14.70;;;-0.60;99.90;;;;;;5094458;28;20474;-84
2022/03/08 08:00:11;;;;;;;27.77;15.02;;;-0.60;99.90;;;;;;5095142;28;20161;-84
2022/03/08 08:02:37;;;;;;;24.92;13.77;;;-0.60;99.90;;;;;;5096197;28;20020;-84
2022/03/08 08:05:04;;;;;;;27.63;13.35;;;-0.50;99.90;;;;;;5095098;28;20059;-85
2022/03/08 08:07:29;;;;;;;49.80;27.35;;;-0.60;99.90;;;;;;5095387;28;20016;-85
2022/03/08 08:09:55;;;;;;;28.60;16.80;;;-0.60;99.90;;;;;;5096648;28;20020;-90
2022/03/08 08:12:21;;;;;;;28.60;16.33;;;-0.50;99.90;;;;;;5094915;28;20024;-91
2022/03/08 08:14:47;;;;;;;25.10;14.48;;;-0.60;99.90;;;;;;5095432;28;20089;-89
2022/03/08 08:17:13;;;;;;;24.10;14.15;;;-0.60;99.90;;;;;;5094824;28;20028;-90
2022/03/08 08:19:39;;;;;;;18.85;11.57;;;-0.60;99.90;;;;;;5094290;28;20035;-87
2022/03/08 08:22:04;;;;;;;23.50;13.05;;;-0.40;99.90;;;;;;5094524;28;20036;-91
2022/03/08 08:24:30;;;;;;;21.27;12.90;;;-0.30;99.90;;;;;;5094866;28;20024;-89
2022/03/08 08:26:56;;;;;;;22.83;13.63;;;-0.20;99.90;;;;;;5095428;28;20024;-84
2022/03/08 08:29:22;;;;;;;22.58;14.23;;;-0.20;99.90;;;;;;5094566;28;20411;-86
2022/03/08 08:31:48;;;;;;;21.30;11.70;;;0.10;99.90;;;;;;5094685;28;20030;-84
2022/03/08 08:34:13;;;;;;;23.98;13.32;;;0.20;99.90;;;;;;5095254;28;20035;-91
2022/03/08 08:36:39;;;;;;;25.90;12.40;;;0.00;99.90;;;;;;5094372;28;20051;-85
2022/03/08 08:39:05;;;;;;;16.95;9.77;;;0.10;99.90;;;;;;5094593;28;20024;-91
2022/03/08 08:41:31;;;;;;;17.63;10.85;;;0.10;99.90;;;;;;5077234;28;20500;-84
2022/03/08 08:43:57;;;;;;;20.67;11.43;;;0.30;99.90;;;;;;5094133;28;20375;-85
2022/03/08 08:46:22;;;;;;;26.77;14.48;;;0.30;99.10;;;;;;5094059;28;20032;-90
2022/03/08 08:48:48;;;;;;;28.90;14.75;;;0.30;99.70;;;;;;5095014;28;20024;-91
2022/03/08 08:51:14;;;;;;;27.88;17.25;;;0.50;99.90;;;;;;5094017;28;20043;-86
2022/03/08 08:53:40;;;;;;;22.70;13.13;;;0.50;97.70;;;;;;5094204;28;20059;-85
2022/03/08 08:56:07;;;;;;;22.92;12.38;;;0.70;96.60;;;;;;5093529;28;20016;-91
2022/03/08 08:58:33;;;;;;;15.82;10.52;;;1.10;94.00;;;;;;5093714;28;20132;-85
2022/03/08 09:01:00;;;;;;;17.92;10.52;;;1.30;89.60;;;;;;5067995;28;20059;-92
2022/03/08 09:03:25;;;;;;;14.80;8.65;;;1.10;88.00;;;;;;5053869;28;20394;-85
2022/03/08 09:05:51;;;;;;;17.08;11.63;;;0.90;86.10;;;;;;5053305;28;20017;-86
2022/03/08 09:08:24;;;;;;;17.90;10.57;;;0.70;87.00;;;;;;5053699;28;20021;-85
2022/03/08 09:10:51;;;;;;;;;;;0.70;88.30;;;;;;5056208;28;20025;-92
2022/03/08 09:13:17;;;;;;;21.20;9.30;;;0.50;87.70;;;;;;5053998;28;19996;-92
2022/03/08 09:15:42;;;;;;;14.32;8.30;;;0.60;89.30;;;;;;5053775;28;20045;-89
2022/03/08 09:18:09;;;;;;;22.02;10.55;;;0.60;89.00;;;;;;5053413;28;20033;-85
2022/03/08 09:20:35;;;;;;;14.13;8.18;;;0.80;88.70;;;;;;5053251;28;20025;-91
2022/03/08 09:23:01;;;;;;;14.18;7.50;;;0.80;85.50;;;;;;5053272;28;20021;-92
2022/03/08 09:25:27;;;;;;;12.32;8.65;;;0.90;84.80;;;;;;5053141;28;20021;-90
2022/03/08 09:27:53;;;;;;;11.32;6.88;;;1.10;83.20;;;;;;5054291;28;20025;-85
2022/03/08 09:30:19;;;;;;;11.68;7.05;;;1.10;81.90;;;;;;5054227;28;20025;-86
2022/03/08 09:32:45;;;;;;;12.70;8.15;;;1.00;80.50;;;;;;5053342;28;20029;-85
2022/03/08 09:35:11;;;;;;;14.27;8.00;;;1.10;79.60;;;;;;5054126;28;20017;-90
2022/03/08 09:37:36;;;;;;;14.65;8.00;;;1.10;77.40;;;;;;5053402;28;20028;-93
2022/03/08 09:40:04;;;;;;;14.57;7.47;;;1.30;77.60;;;;;;5054872;28;20032;-88
2022/03/08 09:42:30;;;;;;;12.57;7.50;;;1.60;75.70;;;;;;5071193;28;20025;-93
2022/03/08 09:44:57;;;;;;;10.23;6.65;;;1.70;76.20;;;;;;5074247;28;20389;-92
2022/03/08 09:47:23;;;;;;;15.45;6.95;;;1.90;75.60;;;;;;5073788;28;20020;-92
2022/03/08 09:49:50;;;;;;;11.95;7.10;;;2.10;74.40;;;;;;5075452;28;20036;-91
2022/03/08 09:52:18;;;;;;;10.85;6.60;;;2.10;73.60;;;;;;5072999;28;20086;-92
2022/03/08 09:54:44;;;;;;;9.27;6.65;;;2.00;73.10;;;;;;5072732;28;20021;-86
2022/03/08 09:57:12;;;;;;;9.02;6.35;;;2.00;71.70;;;;;;5072937;28;20107;-93
2022/03/08 09:59:38;;;;;;;13.88;7.00;;;1.90;71.70;;;;;;5072819;28;20056;-85
2022/03/08 10:02:04;;;;;;;9.68;6.95;;;2.00;72.10;;;;;;5073550;28;20112;-85
2022/03/08 10:04:30;;;;;;;8.27;6.03;;;2.10;71.50;;;;;;5074159;28;20032;-91
2022/03/08 10:06:57;;;;;;;11.68;6.05;;;2.10;70.90;;;;;;5053998;28;20035;-92
2022/03/08 10:09:24;;;;;;;9.32;6.55;;;2.00;69.80;;;;;;5071404;28;20027;-93
2022/03/08 10:11:55;;;;;;;7.88;6.28;;;2.00;71.00;;;;;;5074864;28;20501;-93
2022/03/08 10:14:38;;;;;;;12.60;5.97;;;2.20;70.90;;;;;;5072818;28;20021;-92
2022/03/08 10:17:05;;;;;;;10.00;4.80;;;2.30;69.70;;;;;;5071980;28;20115;-93
2022/03/08 10:19:52;;;;;;;6.70;5.22;;;2.40;67.80;;;;;;5071755;28;20085;-92
2022/03/08 10:22:34;;;;;;;7.95;5.45;;;2.40;67.90;;;;;;5072768;28;20024;-93
2022/03/08 10:25:20;;;;;;;9.50;5.40;;;2.40;68.50;;;;;;5072590;28;20477;-86
2022/03/08 10:27:55;;;;;;;4.93;4.35;;;2.40;66.40;;;;;;5071773;28;20115;-87
2022/03/08 10:30:44;;;;;;;8.40;4.38;;;2.30;65.60;;;;;;5072574;28;20115;-92
2022/03/08 10:33:11;;;;;;;10.65;7.28;;;2.30;65.50;;;;;;5065453;28;20032;-94
2022/03/08 10:35:44;;;;;;;12.63;7.07;;;2.40;65.40;;;;;;5072236;28;20406;-93
2022/03/08 10:38:13;;;;;;;7.45;4.82;;;2.50;65.20;;;;;;5068119;28;20028;-84
2022/03/08 10:40:45;;;;;;;7.32;4.78;;;2.60;64.20;;;;;;5057125;28;20021;-90
2022/03/08 10:43:15;;;;;;;8.55;4.40;;;2.70;64.10;;;;;;5052257;28;20047;-84
2022/03/08 10:45:50;;;;;;;6.53;4.60;;;2.50;62.70;;;;;;5051452;28;20025;-91
2022/03/08 10:48:18;;;;;;;5.40;4.15;;;2.30;63.10;;;;;;5066603;28;20378;-83
2022/03/08 10:50:45;;;;;;;5.20;4.18;;;2.20;63.80;;;;;;5068676;28;20128;-83
2022/03/08 10:53:15;;;;;;;4.70;4.28;;;2.30;63.60;;;;;;5064570;28;20025;-90
2022/03/08 10:55:49;;;;;;;7.80;4.47;;;2.40;62.00;;;;;;5056510;28;20382;-90
2022/03/08 10:58:16;;;;;;;4.68;3.63;;;2.50;61.80;;;;;;5071824;28;20029;-91
2022/03/08 11:00:45;;;;;;;7.15;4.72;;;2.70;60.60;;;;;;5071906;28;20032;-91
2022/03/08 11:03:16;;;;;;;8.10;5.13;;;2.80;60.60;;;;;;5070200;28;20028;-84
2022/03/08 11:05:50;;;;;;;8.35;4.70;;;3.00;60.80;;;;;;5070569;28;20050;-83
2022/03/08 11:08:28;;;;;;;8.07;5.13;;;3.20;61.20;;;;;;5072818;28;20032;-84
2022/03/08 11:11:08;;;;;;;;;;;;;;;;;;;;;
2022/03/08 11:16:26;;;;;;;9.30;5.45;;;3.10;61.50;;;;;;5055584;28;20025;-84
2022/03/08 11:18:55;;;;;;;7.15;5.35;;;3.00;61.80;;;;;;5064003;28;20075;-92
2022/03/08 11:21:24;;;;;;;8.45;5.03;;;2.90;60.90;;;;;;5069146;28;20044;-84
2022/03/08 11:23:54;;;;;;;6.97;5.40;;;2.60;61.00;;;;;;5076766;28;20063;-91
2022/03/08 11:26:28;;;;;;;10.82;6.90;;;2.70;60.30;;;;;;5050752;28;20028;-83
2022/03/08 11:29:04;;;;;;;10.70;7.07;;;2.90;59.70;;;;;;5056531;28;20064;-85
2022/03/08 11:32:14;;;;;;;9.80;6.32;;;3.10;60.40;;;;;;5053142;28;20062;-85
2022/03/08 11:34:57;;;;;;;9.95;6.05;;;3.00;61.10;;;;;;5038430;28;20033;-84
2022/03/08 11:37:30;;;;;;;8.07;5.93;;;3.00;62.00;;;;;;5056909;28;20405;-83
2022/03/08 11:40:10;;;;;;;9.75;6.15;;;2.80;61.10;;;;;;5056895;28;20061;-91
2022/03/08 11:42:41;;;;;;;11.60;5.80;;;2.80;61.20;;;;;;5057306;28;20043;-83
2022/03/08 11:45:30;;;;;;;6.53;5.25;;;2.90;61.10;;;;;;5055419;28;20067;-90
2022/03/08 11:47:59;;;;;;;9.75;5.38;;;3.20;60.50;;;;;;5055761;28;20017;-83
2022/03/08 11:50:36;;;;;;;6.72;5.43;;;3.40;59.80;;;;;;5055121;28;20059;-91
2022/03/08 11:53:10;;;;;;;10.55;6.30;;;3.60;59.50;;;;;;5052965;28;20056;-84
2022/03/08 11:55:45;;;;;;;10.30;5.53;;;3.60;59.10;;;;;;5054391;28;20049;-83
2022/03/08 11:58:13;;;;;;;8.95;6.35;;;3.60;57.60;;;;;;5054316;28;20111;-84
2022/03/08 12:00:45;;;;;;;6.80;4.93;;;3.70;58.30;;;;;;5056123;28;20025;-84
2022/03/08 12:03:33;;;;;;;8.57;4.53;;;3.70;57.60;;;;;;5055554;28;20453;-84
2022/03/08 12:06:09;;;;;;;11.98;6.40;;;3.80;56.90;;;;;;5055821;28;20497;-84
2022/03/08 12:08:35;;;;;;;9.63;7.03;;;3.80;57.50;;;;;;5054543;28;20017;-83
2022/03/08 12:11:12;;;;;;;7.22;5.00;;;3.90;57.40;;;;;;5055590;28;20381;-84
2022/03/08 12:13:41;;;;;;;6.10;5.47;;;4.00;57.10;;;;;;5055726;28;20029;-85
2022/03/08 12:16:09;;;;;;;11.00;5.30;;;4.00;57.90;;;;;;5053567;28;20025;-83
2022/03/08 12:18:55;;;;;;;8.32;5.70;;;4.10;58.00;;;;;;5055287;28;20082;-90
2022/03/08 12:21:21;;;;;;;14.02;6.68;;;4.30;57.70;;;;;;5054643;28;20451;-90
2022/03/08 12:23:50;;;;;;;7.57;5.53;;;4.10;56.70;;;;;;5054112;28;20111;-83
2022/03/08 12:26:27;;;;;;;7.15;5.43;;;4.20;56.60;;;;;;5053835;28;20025;-84
2022/03/08 12:29:14;;;;;;;7.55;5.40;;;4.30;55.80;;;;;;5053435;28;20017;-89
2022/03/08 12:32:01;;;;;;;10.98;5.05;;;4.30;55.10;;;;;;5054224;28;20382;-89
2022/03/08 12:34:43;;;;;;;6.15;4.60;;;4.10;53.70;;;;;;5055307;28;20025;-90
2022/03/08 12:37:12;;;;;;;7.30;5.18;;;4.20;53.20;;;;;;5054987;28;20063;-90
2022/03/08 12:39:57;;;;;;;7.25;5.13;;;4.20;53.70;;;;;;5069494;28;20044;-92